Time;durP1;ratioP1;P1;durP2;ratioP2;P2;SDS_P1;SDS_P2;PMS_P1;PMS_P2;Temp;Humidity;BMP_temperature;BMP_pressure;BME280_temperature;BME280_humidity;BME280_pressure;Samples;Min_cycle;Max_cycle;Signal;HPM_P1;HPM_P2
2022/06/13 00:02:22;;;;;;;8.67;5.97;;;18.90;99.90;;;;;;4994547;28;20190;-61
2022/06/13 00:04:48;;;;;;;6.70;5.70;;;18.90;99.90;;;;;;5002724;28;20558;-61
2022/06/13 00:07:13;;;;;;;6.50;5.80;;;18.90;99.90;;;;;;5007875;28;20208;-60
2022/06/13 00:09:39;;;;;;;6.77;5.37;;;18.90;99.90;;;;;;5015192;28;20176;-61
2022/06/13 00:12:04;;;;;;;6.90;5.73;;;18.80;99.90;;;;;;5012310;28;20188;-61
2022/06/13 00:14:30;;;;;;;7.90;5.67;;;18.80;99.90;;;;;;5015898;28;20192;-62
2022/06/13 00:16:56;;;;;;;9.00;5.80;;;18.80;99.90;;;;;;5009742;28;20204;-62
2022/06/13 00:19:21;;;;;;;6.60;5.70;;;18.80;99.90;;;;;;5008542;28;20719;-61
2022/06/13 00:21:47;;;;;;;7.53;5.30;;;18.80;99.90;;;;;;5002905;28;20234;-61
2022/06/13 00:24:12;;;;;;;6.37;5.53;;;18.80;99.90;;;;;;5003688;28;20217;-62
2022/06/13 00:26:38;;;;;;;13.03;8.17;;;18.80;99.90;;;;;;5018117;28;20185;-60
2022/06/13 00:29:04;;;;;;;9.10;5.47;;;18.80;99.90;;;;;;5010262;28;20196;-61
2022/06/13 00:31:30;;;;;;;8.30;5.73;;;18.70;99.90;;;;;;5010248;28;20200;-60
2022/06/13 00:33:55;;;;;;;7.70;5.83;;;18.70;99.90;;;;;;5006925;28;20172;-60
2022/06/13 00:36:23;;;;;;;8.47;6.07;;;18.70;99.90;;;;;;5018319;28;20726;-61
2022/06/13 00:38:49;;;;;;;8.30;6.00;;;18.60;99.90;;;;;;5012098;28;20698;-60
2022/06/13 00:41:20;;;;;;;5.70;5.10;;;18.60;99.90;;;;;;5009730;28;20431;-60
2022/06/13 00:43:46;;;;;;;5.57;4.10;;;18.50;99.90;;;;;;4998487;28;20456;-61
2022/06/13 00:46:33;;;;;;;7.33;4.23;;;18.50;99.90;;;;;;5012310;28;20435;-61
2022/06/13 00:49:05;;;;;;;6.00;4.20;;;18.40;99.90;;;;;;4987108;28;20431;-60
2022/06/13 00:51:34;;;;;;;10.80;5.33;;;18.40;99.90;;;;;;4995599;28;20432;-60
2022/06/13 00:54:00;;;;;;;6.93;4.90;;;18.40;99.90;;;;;;4996612;28;20443;-60
2022/06/13 00:56:28;;;;;;;8.87;4.83;;;18.40;99.90;;;;;;5017243;28;20439;-60
2022/06/13 00:59:00;;;;;;;4.40;3.70;;;18.40;99.90;;;;;;5015297;28;20240;-61
2022/06/13 01:01:28;;;;;;;6.67;4.20;;;18.40;99.90;;;;;;5008019;28;20944;-61
2022/06/13 01:03:56;;;;;;;6.17;4.43;;;18.30;99.90;;;;;;5010736;28;20521;-61
2022/06/13 01:06:22;;;;;;;5.30;4.30;;;18.30;99.90;;;;;;5000640;28;20435;-60
2022/06/13 01:08:48;;;;;;;5.07;4.00;;;18.30;99.90;;;;;;5008419;28;20451;-60
2022/06/13 01:11:18;;;;;;;6.53;3.80;;;18.20;99.90;;;;;;5002191;28;20424;-61
2022/06/13 01:14:06;;;;;;;5.40;3.87;;;18.20;99.90;;;;;;5002970;28;20188;-58
2022/06/13 01:17:10;;;;;;;6.73;3.50;;;18.10;99.90;;;;;;5003602;28;20461;-62
2022/06/13 01:19:42;;;;;;;6.30;3.20;;;18.10;99.90;;;;;;4996459;28;20420;-61
2022/06/13 01:22:29;;;;;;;4.50;3.30;;;18.10;99.90;;;;;;5004465;28;20521;-61
2022/06/13 01:25:23;;;;;;;4.73;3.00;;;18.00;99.90;;;;;;5000499;28;20499;-62
2022/06/13 01:28:20;;;;;;;3.53;3.23;;;18.00;99.90;;;;;;4988344;28;20688;-61
2022/06/13 01:31:14;;;;;;;7.60;3.23;;;18.00;99.90;;;;;;5005564;28;20879;-62
2022/06/13 01:34:03;;;;;;;3.37;2.80;;;17.90;99.90;;;;;;4979589;28;20961;-61
2022/06/13 01:36:38;;;;;;;5.47;4.67;;;17.90;99.90;;;;;;5000000;28;20427;-61
2022/06/13 01:39:09;;;;;;;5.07;3.63;;;17.90;99.90;;;;;;4999440;28;20506;-61
2022/06/13 01:41:38;;;;;;;3.80;3.40;;;17.90;99.90;;;;;;5006626;28;20776;-61
2022/06/13 01:44:26;;;;;;;3.90;3.60;;;17.90;99.90;;;;;;5011793;28;20542;-61
2022/06/13 01:47:08;;;;;;;4.13;3.77;;;17.90;99.90;;;;;;5002999;28;21008;-61
2022/06/13 01:49:37;;;;;;;4.00;3.60;;;17.90;99.90;;;;;;5011099;28;20426;-61
2022/06/13 01:52:21;;;;;;;5.13;3.57;;;17.80;99.90;;;;;;4995663;28;20428;-60
2022/06/13 01:55:17;;;;;;;4.23;3.67;;;17.80;99.90;;;;;;4994711;28;20799;-61
2022/06/13 01:57:49;;;;;;;4.50;3.20;;;17.80;99.90;;;;;;4995901;28;20840;-57
2022/06/13 02:00:20;;;;;;;3.50;3.20;;;17.80;99.90;;;;;;4996061;28;20493;-60
2022/06/13 02:02:56;;;;;;;5.80;3.00;;;17.70;99.90;;;;;;5001851;28;20518;-59
2022/06/13 02:05:39;;;;;;;3.27;2.97;;;17.70;99.90;;;;;;5020513;28;20437;-59
2022/06/13 02:08:28;;;;;;;3.63;3.20;;;17.70;99.90;;;;;;5006668;28;20500;-61
2022/06/13 02:11:21;;;;;;;3.57;3.27;;;17.70;99.90;;;;;;4999453;28;21012;-60
2022/06/13 02:13:51;;;;;;;8.50;3.27;;;17.70;99.90;;;;;;5010532;28;20431;-61
2022/06/13 02:16:30;;;;;;;3.73;3.37;;;17.70;99.90;;;;;;4987056;28;20428;-60
2022/06/13 02:19:21;;;;;;;3.70;3.40;;;17.70;99.90;;;;;;4987539;28;20614;-59
2022/06/13 02:21:57;;;;;;;3.90;3.50;;;17.70;99.90;;;;;;5005682;28;20415;-60
2022/06/13 02:24:31;;;;;;;3.70;3.30;;;17.70;99.90;;;;;;5005262;28;20501;-61
2022/06/13 02:26:59;;;;;;;4.90;3.70;;;17.70;99.90;;;;;;5002773;28;20495;-60
2022/06/13 02:29:47;;;;;;;3.67;3.37;;;17.70;99.90;;;;;;4986629;28;20420;-61
2022/06/13 02:32:36;;;;;;;3.87;3.53;;;17.60;99.90;;;;;;5003399;28;20419;-60
2022/06/13 02:35:10;;;;;;;4.40;3.43;;;17.60;99.90;;;;;;4991626;28;20416;-61
2022/06/13 02:37:42;;;;;;;4.97;3.10;;;17.60;99.90;;;;;;5005303;28;20463;-60
2022/06/13 02:40:11;;;;;;;4.77;4.07;;;17.60;99.90;;;;;;5009040;28;21378;-61
2022/06/13 02:42:58;;;;;;;5.83;4.07;;;17.60;99.90;;;;;;4993652;28;20438;-61
2022/06/13 02:45:36;;;;;;;4.40;3.63;;;17.60;99.90;;;;;;5007087;28;20863;-61
2022/06/13 02:48:34;;;;;;;5.43;3.97;;;17.60;99.90;;;;;;5003981;28;20442;-61
2022/06/13 02:51:03;;;;;;;4.40;3.60;;;17.60;99.90;;;;;;5007477;28;20419;-60
2022/06/13 02:53:52;;;;;;;5.10;3.40;;;17.60;99.90;;;;;;4999592;28;20485;-60
2022/06/13 03:00:18;;;;;;;5.07;3.73;;;17.50;99.90;;;;;;5008136;28;20983;-60
2022/06/13 03:02:59;;;;;;;6.00;3.60;;;17.50;99.90;;;;;;4990198;28;20443;-61
2022/06/13 03:05:51;;;;;;;5.57;4.07;;;17.50;99.90;;;;;;5010239;28;20431;-61
2022/06/13 03:08:41;;;;;;;7.40;3.90;;;17.40;99.90;;;;;;5006798;28;20431;-61
2022/06/13 03:11:27;;;;;;;7.20;4.40;;;17.40;99.90;;;;;;5010279;28;20522;-61
2022/06/13 03:14:13;;;;;;;6.17;3.93;;;17.40;99.90;;;;;;5014700;28;20402;-60
2022/06/13 03:16:55;;;;;;;8.97;4.00;;;17.40;99.90;;;;;;5007351;28;20431;-60
2022/06/13 03:19:35;;;;;;;3.90;3.50;;;17.40;99.90;;;;;;4991114;28;20431;-59
2022/06/13 03:22:29;;;;;;;6.50;3.77;;;17.40;99.90;;;;;;5006798;28;20442;-60
2022/06/13 03:25:07;;;;;;;5.30;3.63;;;17.40;99.90;;;;;;5008423;28;20995;-60
2022/06/13 03:27:57;;;;;;;7.30;3.83;;;17.30;99.90;;;;;;5013053;28;20447;-60
2022/06/13 03:30:29;;;;;;;6.27;3.77;;;17.30;99.90;;;;;;5013062;28;20419;-60
2022/06/13 03:35:58;;;;;;;8.13;3.23;;;17.20;99.90;;;;;;5007945;28;20488;-60
2022/06/13 03:38:29;;;;;;;5.63;3.73;;;17.10;99.90;;;;;;5011809;28;20522;-60
2022/06/13 03:40:58;;;;;;;8.80;3.80;;;17.10;99.90;;;;;;5012160;28;20446;-61
2022/06/13 03:43:31;;;;;;;10.53;4.00;;;17.00;99.90;;;;;;5008196;28;22458;-61
2022/06/13 03:46:07;;;;;;;4.60;3.30;;;17.00;99.90;;;;;;5014079;28;20474;-61
2022/06/13 03:48:40;;;;;;;6.37;3.87;;;16.90;99.90;;;;;;5011257;28;20459;-61
2022/06/13 03:51:16;;;;;;;5.13;3.17;;;16.90;99.90;;;;;;5009808;28;20869;-61
2022/06/13 03:53:49;;;;;;;6.50;3.57;;;16.80;99.90;;;;;;5014987;28;20509;-61
2022/06/13 03:56:36;;;;;;;5.80;3.67;;;16.70;99.90;;;;;;5009849;28;20439;-60
2022/06/13 03:59:15;;;;;;;10.70;3.30;;;16.70;99.90;;;;;;5014851;28;20417;-61
2022/06/13 04:01:55;;;;;;;9.30;3.90;;;16.70;99.90;;;;;;5008982;28;20435;-61
2022/06/13 04:04:29;;;;;;;9.97;3.90;;;16.70;99.90;;;;;;5006507;28;20537;-60
2022/06/13 04:06:54;;;;;;;5.13;3.40;;;16.70;99.90;;;;;;5010881;28;20447;-61
2022/06/13 04:09:22;;;;;;;8.00;3.63;;;16.70;99.90;;;;;;5010002;28;20423;-60
2022/06/13 04:12:03;;;;;;;4.20;3.57;;;16.70;99.90;;;;;;5008858;28;20183;-61
2022/06/13 04:15:06;;;;;;;7.93;3.90;;;16.60;99.90;;;;;;5007174;28;20430;-60
2022/06/13 04:18:09;;;;;;;5.10;3.30;;;16.60;99.90;;;;;;5004723;28;20458;-60
2022/06/13 04:21:07;;;;;;;4.77;3.80;;;16.60;99.90;;;;;;5005028;28;20427;-61
2022/06/13 04:24:17;;;;;;;9.77;3.70;;;16.50;99.90;;;;;;5006050;28;20463;-60
2022/06/13 04:27:01;;;;;;;11.23;4.00;;;16.40;99.90;;;;;;5001212;28;20439;-61
2022/06/13 04:29:39;;;;;;;5.00;3.60;;;16.40;99.90;;;;;;5002332;28;20438;-55
2022/06/13 04:32:10;;;;;;;5.63;3.43;;;16.30;99.90;;;;;;4997122;28;20440;-59
2022/06/13 04:34:43;;;;;;;5.80;3.60;;;16.30;99.90;;;;;;4997362;28;20442;-60
2022/06/13 04:37:10;;;;;;;4.63;3.27;;;16.30;99.90;;;;;;5003088;28;20544;-61
2022/06/13 04:39:38;;;;;;;8.27;3.57;;;16.30;99.90;;;;;;5002701;28;20482;-59
2022/06/13 04:42:06;;;;;;;6.53;3.10;;;16.30;99.90;;;;;;5008405;28;20931;-59
2022/06/13 04:44:34;;;;;;;4.30;3.60;;;16.30;99.90;;;;;;5010253;28;20482;-60
2022/06/13 04:47:02;;;;;;;6.63;3.60;;;16.40;99.90;;;;;;4996015;28;21255;-60
2022/06/13 04:49:53;;;;;;;5.90;3.70;;;16.40;99.90;;;;;;5003512;28;20470;-61
2022/06/13 04:52:29;;;;;;;3.93;3.40;;;16.40;99.90;;;;;;5005981;28;20437;-60
2022/06/13 04:55:04;;;;;;;6.03;3.57;;;16.40;99.90;;;;;;5006469;28;20626;-60
2022/06/13 04:57:30;;;;;;;5.67;3.50;;;16.40;99.90;;;;;;4996191;28;20473;-60
2022/06/13 04:59:56;;;;;;;4.43;3.30;;;16.40;99.90;;;;;;5003641;28;20443;-60
2022/06/13 05:02:31;;;;;;;9.90;3.70;;;16.40;99.90;;;;;;5005472;28;21023;-61
2022/06/13 05:04:57;;;;;;;6.93;3.47;;;16.40;99.90;;;;;;5008178;28;20510;-61
2022/06/13 05:07:23;;;;;;;6.00;3.63;;;16.40;99.90;;;;;;5005461;28;20488;-61
2022/06/13 05:10:00;;;;;;;5.47;2.87;;;16.40;99.90;;;;;;5004693;28;20431;-61
2022/06/13 05:12:32;;;;;;;7.90;4.10;;;16.40;99.90;;;;;;4998185;28;20454;-60
2022/06/13 05:15:07;;;;;;;4.50;2.90;;;16.50;99.90;;;;;;5006064;28;20427;-61
2022/06/13 05:18:10;;;;;;;6.20;3.53;;;16.60;99.90;;;;;;5000709;28;20463;-60
2022/06/13 05:20:50;;;;;;;5.20;2.67;;;16.80;99.90;;;;;;5005780;28;20427;-61
2022/06/13 05:23:22;;;;;;;6.10;3.20;;;16.90;99.90;;;;;;5007903;28;20461;-60
2022/06/13 05:25:54;;;;;;;7.70;3.80;;;17.00;99.90;;;;;;5003811;28;20957;-60
2022/06/13 05:28:22;;;;;;;9.60;3.00;;;17.00;99.90;;;;;;5004421;28;20823;-61
2022/06/13 05:30:51;;;;;;;5.13;2.87;;;17.00;99.90;;;;;;4994761;28;20818;-61
2022/06/13 05:33:20;;;;;;;5.37;3.10;;;17.00;99.90;;;;;;5005786;28;20416;-61
2022/06/13 05:35:52;;;;;;;6.73;3.03;;;17.00;99.90;;;;;;5008343;28;20469;-61
2022/06/13 05:38:29;;;;;;;5.17;2.90;;;17.00;99.90;;;;;;4993772;28;20451;-62
2022/06/13 05:40:54;;;;;;;5.23;2.97;;;17.10;99.90;;;;;;5007520;28;20498;-59
2022/06/13 05:43:20;;;;;;;9.53;3.20;;;17.20;99.90;;;;;;5007739;28;20451;-60
2022/06/13 05:45:46;;;;;;;5.60;3.20;;;17.30;99.90;;;;;;5007145;28;20222;-60
2022/06/13 05:48:17;;;;;;;5.27;2.93;;;17.40;99.90;;;;;;5007377;28;20200;-59
2022/06/13 05:50:44;;;;;;;7.03;2.87;;;17.50;99.90;;;;;;5008613;28;20647;-58
2022/06/13 05:53:12;;;;;;;6.07;3.00;;;17.50;99.90;;;;;;5007059;28;20447;-59
2022/06/13 05:55:38;;;;;;;12.40;3.10;;;17.60;99.90;;;;;;5001270;28;20502;-63
2022/06/13 05:58:04;;;;;;;5.00;3.03;;;17.60;99.90;;;;;;5006219;28;20451;-61
2022/06/13 06:00:36;;;;;;;5.17;2.83;;;17.60;99.90;;;;;;5010444;28;20199;-60
2022/06/13 06:03:01;;;;;;;6.43;3.13;;;17.60;99.90;;;;;;5002335;28;20172;-61
2022/06/13 06:05:27;;;;;;;4.63;2.73;;;17.70;99.90;;;;;;5003943;28;20932;-61
2022/06/13 06:07:53;;;;;;;6.73;3.50;;;17.70;99.90;;;;;;5000592;28;20638;-60
2022/06/13 06:10:23;;;;;;;7.20;3.40;;;17.80;99.90;;;;;;5002980;28;20171;-61
2022/06/13 06:12:49;;;;;;;4.97;3.67;;;17.70;99.90;;;;;;5006047;28;20207;-62
2022/06/13 06:15:15;;;;;;;8.30;3.80;;;17.70;99.90;;;;;;5002827;28;20471;-61
2022/06/13 06:17:40;;;;;;;5.17;3.20;;;17.80;99.90;;;;;;5003120;28;20199;-60
2022/06/13 06:20:07;;;;;;;8.50;3.40;;;17.70;99.90;;;;;;5010108;28;20264;-61
2022/06/13 06:22:32;;;;;;;8.30;3.67;;;17.70;99.90;;;;;;5010595;28;20211;-61
2022/06/13 06:24:58;;;;;;;4.83;3.30;;;17.70;99.90;;;;;;5001475;28;21510;-60
2022/06/13 06:27:23;;;;;;;7.50;2.70;;;17.80;98.20;;;;;;5004866;28;20192;-61
2022/06/13 06:29:49;;;;;;;5.20;3.40;;;17.80;99.20;;;;;;5005920;28;20168;-61
2022/06/13 06:32:15;;;;;;;4.40;2.90;;;17.80;98.80;;;;;;4985848;28;20258;-61
2022/06/13 06:34:41;;;;;;;3.00;2.70;;;17.90;97.80;;;;;;5003344;28;20846;-60
2022/06/13 06:37:07;;;;;;;7.77;2.67;;;17.90;94.10;;;;;;5007950;28;20212;-60
2022/06/13 06:39:33;;;;;;;6.80;2.90;;;17.90;93.70;;;;;;5005129;28;20431;-60
2022/06/13 06:41:58;;;;;;;5.40;2.80;;;18.00;91.50;;;;;;5005617;28;20176;-60
2022/06/13 06:44:24;;;;;;;7.10;3.20;;;18.00;91.40;;;;;;5004545;28;20208;-60
2022/06/13 06:46:49;;;;;;;3.60;3.10;;;18.00;92.40;;;;;;5004974;28;20192;-60
2022/06/13 06:49:15;;;;;;;7.13;4.00;;;18.10;92.80;;;;;;5004885;28;20218;-59
2022/06/13 06:51:43;;;;;;;8.70;3.40;;;18.10;94.20;;;;;;4997859;28;20266;-62
2022/06/13 06:59:56;;;;;;;4.93;3.37;;;18.30;94.40;;;;;;4997277;28;20430;-59
2022/06/13 07:02:24;;;;;;;7.27;2.97;;;18.20;93.90;;;;;;4997065;28;20439;-61
2022/06/13 07:04:55;;;;;;;9.30;3.87;;;18.10;95.30;;;;;;4980053;28;20451;-61
2022/06/13 07:07:21;;;;;;;4.67;3.30;;;18.20;95.40;;;;;;4994903;28;20968;-61
2022/06/13 07:09:47;;;;;;;4.50;2.97;;;18.30;95.30;;;;;;4997202;28;20545;-61
2022/06/13 07:12:13;;;;;;;4.50;3.13;;;18.40;95.10;;;;;;4996946;28;20427;-61
2022/06/13 07:14:39;;;;;;;7.37;3.93;;;18.50;95.40;;;;;;4993599;28;20511;-61
2022/06/13 07:17:07;;;;;;;11.03;3.50;;;18.60;94.50;;;;;;4998100;28;20279;-61
2022/06/13 07:19:33;;;;;;;9.50;3.90;;;18.60;97.10;;;;;;4997617;28;20447;-62
2022/06/13 07:21:59;;;;;;;9.67;3.80;;;18.70;98.20;;;;;;4994927;28;20428;-62
2022/06/13 07:24:26;;;;;;;10.90;3.50;;;18.80;99.40;;;;;;4974761;28;20459;-61
2022/06/13 07:26:52;;;;;;;7.77;3.67;;;19.00;99.80;;;;;;4993360;28;20431;-62
2022/06/13 07:29:18;;;;;;;5.87;3.97;;;19.00;99.30;;;;;;4975910;28;21148;-61
2022/06/13 07:32:04;;;;;;;7.93;3.70;;;19.10;97.30;;;;;;5003435;28;20609;-61
2022/06/13 07:34:32;;;;;;;10.40;3.83;;;19.10;97.20;;;;;;4995502;28;20215;-60
2022/06/13 07:37:00;;;;;;;4.80;3.57;;;19.10;99.10;;;;;;4992132;28;20867;-60
2022/06/13 07:39:26;;;;;;;6.20;2.90;;;19.20;99.90;;;;;;4987046;28;20431;-61
2022/06/13 07:41:52;;;;;;;5.60;3.50;;;19.30;96.10;;;;;;4980420;28;20839;-61
2022/06/13 07:44:25;;;;;;;6.00;3.33;;;19.30;95.00;;;;;;4995394;28;20200;-62
2022/06/13 07:46:51;;;;;;;4.73;3.00;;;19.30;90.20;;;;;;4999463;28;20530;-63
2022/06/13 07:49:18;;;;;;;7.30;3.10;;;19.30;81.50;;;;;;5001303;28;20423;-62
2022/06/13 07:51:45;;;;;;;4.33;3.00;;;19.20;75.40;;;;;;5000749;28;20590;-62
2022/06/13 07:54:10;;;;;;;5.57;3.33;;;19.10;78.60;;;;;;5003672;28;20419;-60
2022/06/13 07:56:38;;;;;;;6.07;2.77;;;19.10;78.10;;;;;;4998704;28;20423;-60
2022/06/13 07:59:04;;;;;;;7.77;3.20;;;19.20;86.50;;;;;;5002210;28;20669;-60
2022/06/13 08:01:30;;;;;;;7.13;3.00;;;19.30;76.20;;;;;;5004167;28;20446;-62
2022/06/13 08:03:56;;;;;;;6.00;2.87;;;19.30;65.80;;;;;;5002076;28;20459;-61
2022/06/13 08:06:23;;;;;;;5.30;2.77;;;19.30;63.50;;;;;;4999674;28;20184;-62
2022/06/13 08:08:49;;;;;;;8.27;2.80;;;19.10;64.10;;;;;;4983728;28;20188;-61
2022/06/13 08:11:18;;;;;;;3.93;2.27;;;19.00;62.90;;;;;;4990775;28;20481;-61
2022/06/13 08:13:44;;;;;;;6.50;3.33;;;18.90;62.00;;;;;;4997207;28;20581;-60
2022/06/13 08:16:11;;;;;;;5.47;2.33;;;18.90;61.80;;;;;;4987161;28;21037;-61
2022/06/13 08:18:37;;;;;;;6.20;2.80;;;18.90;60.40;;;;;;5002057;28;20193;-62
2022/06/13 08:21:03;;;;;;;5.67;2.70;;;18.90;61.50;;;;;;5002524;28;20522;-61
2022/06/13 08:23:29;;;;;;;4.43;2.57;;;18.90;59.30;;;;;;4999040;28;20470;-62
2022/06/13 08:25:55;;;;;;;10.07;2.43;;;18.90;59.00;;;;;;4996302;28;20438;-61
2022/06/13 08:28:21;;;;;;;6.23;2.80;;;19.00;57.40;;;;;;4996064;28;20469;-61
2022/06/13 08:30:53;;;;;;;4.77;2.70;;;19.00;56.70;;;;;;5000141;28;20184;-60
2022/06/13 08:33:20;;;;;;;6.63;3.10;;;19.00;58.50;;;;;;4995818;28;20169;-62
2022/06/13 08:35:47;;;;;;;5.93;2.70;;;19.10;60.10;;;;;;5004764;28;20838;-60
2022/06/13 08:38:13;;;;;;;11.50;2.53;;;19.20;61.60;;;;;;4987944;28;20999;-57
2022/06/13 08:40:58;;;;;;;12.20;3.80;;;19.30;59.80;;;;;;4993506;28;20437;-56
2022/06/13 08:43:36;;;;;;;13.57;3.10;;;19.50;63.30;;;;;;4998195;28;20490;-58
2022/06/13 08:46:23;;;;;;;9.73;3.13;;;19.70;61.30;;;;;;5002211;28;20425;-57
2022/06/13 08:49:00;;;;;;;6.10;2.80;;;19.80;58.50;;;;;;5001681;28;20539;-57
2022/06/13 08:52:11;;;;;;;5.63;2.53;;;19.80;56.80;;;;;;5000636;28;20428;-62
2022/06/13 08:54:37;;;;;;;5.20;2.67;;;19.80;54.50;;;;;;4988166;28;20441;-62
2022/06/13 08:57:10;;;;;;;4.20;2.33;;;19.90;56.40;;;;;;5002903;28;20923;-62
2022/06/13 08:59:49;;;;;;;5.77;2.70;;;19.90;55.50;;;;;;4998658;28;20438;-62
2022/06/13 09:02:24;;;;;;;5.80;2.57;;;19.90;55.50;;;;;;4997374;28;20450;-62
2022/06/13 09:04:57;;;;;;;8.83;3.17;;;19.90;59.00;;;;;;4996420;28;20466;-58
2022/06/13 09:07:31;;;;;;;5.90;2.90;;;20.00;55.50;;;;;;4998963;28;20474;-64
2022/06/13 09:10:01;;;;;;;7.10;2.80;;;20.00;55.70;;;;;;4994329;28;20435;-62
2022/06/13 09:12:52;;;;;;;8.57;2.63;;;20.10;55.40;;;;;;5001150;28;20417;-62
2022/06/13 09:15:20;;;;;;;6.97;2.50;;;20.10;52.60;;;;;;4997546;28;20432;-61
2022/06/13 09:17:52;;;;;;;8.03;3.00;;;20.00;53.00;;;;;;4995207;28;20475;-61
2022/06/13 09:20:30;;;;;;;13.40;6.20;;;20.10;54.30;;;;;;4999857;28;20621;-61
2022/06/13 09:23:34;;;;;;;19.67;6.90;;;20.30;55.00;;;;;;4995859;28;20447;-56
2022/06/13 09:26:12;;;;;;;15.43;4.10;;;20.50;56.10;;;;;;4987715;28;20447;-62
2022/06/13 09:28:46;;;;;;;7.70;2.70;;;20.80;55.70;;;;;;5002737;28;21156;-63
2022/06/13 09:31:19;;;;;;;5.70;2.97;;;20.90;52.00;;;;;;4983179;28;20440;-63
2022/06/13 09:33:52;;;;;;;5.87;2.47;;;20.90;50.70;;;;;;5004764;28;20474;-62
2022/06/13 09:36:25;;;;;;;7.63;2.93;;;20.90;51.00;;;;;;4997830;28;20432;-62
2022/06/13 09:38:58;;;;;;;5.07;2.80;;;21.00;52.00;;;;;;4997362;28;20459;-63
2022/06/13 09:41:48;;;;;;;5.83;2.70;;;21.00;51.70;;;;;;5000807;28;20487;-63
2022/06/13 09:44:33;;;;;;;4.30;2.50;;;21.00;51.50;;;;;;5002294;28;21106;-63
2022/06/13 09:47:04;;;;;;;7.13;2.40;;;21.00;53.00;;;;;;4992222;28;20452;-59
2022/06/13 09:49:46;;;;;;;5.50;2.53;;;21.10;51.00;;;;;;4999623;28;20515;-60
2022/06/13 09:52:38;;;;;;;4.10;2.37;;;21.20;52.80;;;;;;4996032;28;20932;-61
2022/06/13 09:55:25;;;;;;;9.13;2.90;;;21.30;52.80;;;;;;4983833;28;20485;-61
2022/06/13 09:58:18;;;;;;;8.63;2.57;;;21.50;53.10;;;;;;4995721;28;20508;-61
2022/06/13 10:01:10;;;;;;;11.67;3.07;;;21.60;53.20;;;;;;4990052;28;20448;-61
2022/06/13 10:03:59;;;;;;;12.50;3.40;;;21.80;52.00;;;;;;4966942;28;20489;-61
2022/06/13 10:06:43;;;;;;;5.90;2.60;;;21.80;50.10;;;;;;4975669;28;20547;-61
2022/06/13 10:09:35;;;;;;;4.97;2.27;;;21.90;50.20;;;;;;4999839;28;20519;-62
2022/06/13 10:12:33;;;;;;;6.33;2.77;;;22.00;51.20;;;;;;4995238;28;20947;-61
2022/06/13 10:15:35;;;;;;;7.73;2.57;;;22.00;51.50;;;;;;4984175;28;20473;-60
2022/06/13 10:18:22;;;;;;;7.50;2.27;;;22.20;51.20;;;;;;4995702;28;20477;-62
2022/06/13 10:20:54;;;;;;;3.60;2.10;;;22.30;49.10;;;;;;4993919;28;20431;-61
2022/06/13 10:23:37;;;;;;;4.00;2.33;;;22.40;47.80;;;;;;4997612;28;20432;-61
2022/06/13 10:26:35;;;;;;;9.03;2.60;;;22.40;46.50;;;;;;4996077;28;20435;-62
2022/06/13 10:29:06;;;;;;;3.87;2.13;;;22.30;46.70;;;;;;4980946;28;20525;-61
2022/06/13 10:31:52;;;;;;;9.70;3.23;;;22.30;47.50;;;;;;4997811;28;20440;-62
2022/06/13 10:34:25;;;;;;;14.70;3.13;;;22.30;48.10;;;;;;4994234;28;20448;-60
2022/06/13 10:37:08;;;;;;;9.33;2.17;;;22.30;48.40;;;;;;4990655;28;21057;-64
2022/06/13 10:39:33;;;;;;;10.83;2.57;;;22.30;46.50;;;;;;4998293;28;20934;-60
2022/06/13 10:42:08;;;;;;;4.40;1.80;;;22.40;47.30;;;;;;4993792;28;20501;-60
2022/06/13 10:44:34;;;;;;;7.87;2.00;;;22.50;45.50;;;;;;4989207;28;20240;-64
2022/06/13 10:47:46;;;;;;;6.30;2.30;;;22.60;45.40;;;;;;4998034;28;20466;-61
2022/06/13 10:50:17;;;;;;;7.03;2.07;;;22.80;47.10;;;;;;4983302;28;20436;-61
2022/06/13 10:52:47;;;;;;;5.27;2.00;;;23.00;46.40;;;;;;4991689;28;20423;-61
2022/06/13 10:55:19;;;;;;;3.43;1.87;;;23.00;42.70;;;;;;4975406;28;20530;-63
2022/06/13 10:57:56;;;;;;;3.53;1.67;;;22.90;41.00;;;;;;4995563;28;20459;-59
2022/06/13 11:00:27;;;;;;;3.00;1.73;;;22.80;42.20;;;;;;5000108;28;20474;-59
2022/06/13 11:03:10;;;;;;;7.13;2.30;;;22.90;44.60;;;;;;4995349;28;20435;-61
2022/06/13 11:05:52;;;;;;;5.43;1.83;;;23.00;44.60;;;;;;4999261;28;20427;-60
2022/06/13 11:08:19;;;;;;;4.40;2.10;;;23.20;46.60;;;;;;4997179;28;20455;-60
2022/06/13 11:11:01;;;;;;;3.63;2.00;;;23.50;45.90;;;;;;4999269;28;20498;-61
2022/06/13 11:13:29;;;;;;;2.20;1.50;;;23.60;43.50;;;;;;4999329;28;20462;-59
2022/06/13 11:24:45;;;;;;;3.83;1.63;;;23.60;39.10;;;;;;4993492;28;20576;-60
2022/06/13 11:27:40;;;;;;;5.73;1.90;;;23.50;39.60;;;;;;4993817;28;20447;-60
2022/06/13 11:30:28;;;;;;;3.73;1.63;;;23.70;42.50;;;;;;4998016;28;21090;-59
2022/06/13 11:33:10;;;;;;;3.10;1.50;;;24.00;44.00;;;;;;4999260;28;20438;-60
2022/06/13 11:35:41;;;;;;;3.97;1.80;;;24.30;42.90;;;;;;4977686;28;20464;-60
2022/06/13 11:38:26;;;;;;;5.30;2.03;;;24.30;39.60;;;;;;4998181;28;20465;-59
2022/06/13 11:41:04;;;;;;;4.17;1.73;;;24.30;40.70;;;;;;5000927;28;20494;-58
2022/06/13 11:43:43;;;;;;;5.50;1.80;;;24.30;41.40;;;;;;5002221;28;20517;-57
2022/06/13 11:46:28;;;;;;;2.77;1.50;;;24.40;42.60;;;;;;5005002;28;20438;-58
2022/06/13 11:49:05;;;;;;;2.47;1.50;;;24.50;40.20;;;;;;4982645;28;20996;-56
2022/06/13 11:55:28;;;;;;;3.50;1.60;;;24.70;39.50;;;;;;4928746;28;20431;-57
2022/06/13 11:57:57;;;;;;;2.57;1.47;;;24.80;38.60;;;;;;4984578;28;20451;-57
2022/06/13 12:00:31;;;;;;;1.87;1.60;;;24.90;39.20;;;;;;4998862;28;20439;-60
2022/06/13 12:03:06;;;;;;;2.90;1.73;;;25.00;39.00;;;;;;5002656;28;20453;-58
2022/06/13 12:05:39;;;;;;;5.80;1.30;;;25.10;38.00;;;;;;4993112;28;20431;-58
2022/06/13 12:08:17;;;;;;;4.77;1.63;;;25.10;37.00;;;;;;4996823;28;20773;-59
2022/06/13 12:10:57;;;;;;;8.83;1.63;;;25.10;38.30;;;;;;4992542;28;20530;-59
2022/06/13 12:13:23;;;;;;;3.93;1.40;;;25.20;38.00;;;;;;4990941;28;20510;-59
2022/06/13 12:16:10;;;;;;;7.10;1.70;;;25.30;37.00;;;;;;5001921;28;20936;-60
2022/06/13 12:18:50;;;;;;;3.47;1.40;;;25.30;34.90;;;;;;4998160;28;20211;-61
2022/06/13 12:21:25;;;;;;;2.07;1.50;;;25.30;34.50;;;;;;4997198;28;20434;-59
2022/06/13 12:24:12;;;;;;;2.60;1.37;;;25.30;35.80;;;;;;5000604;28;20457;-59
2022/06/13 12:26:43;;;;;;;3.70;1.33;;;25.40;35.90;;;;;;4976843;28;20480;-60
2022/06/13 12:29:34;;;;;;;1.67;1.20;;;25.40;34.10;;;;;;4993432;28;20430;-60
2022/06/13 12:32:40;;;;;;;1.87;1.07;;;25.50;35.90;;;;;;4997229;28;20474;-60
2022/06/13 12:35:16;;;;;;;1.67;1.30;;;25.60;31.70;;;;;;5006857;28;21017;-63
2022/06/13 12:38:08;;;;;;;2.13;1.30;;;25.40;31.90;;;;;;5001487;28;20493;-60
2022/06/13 12:40:54;;;;;;;4.20;1.77;;;25.50;33.00;;;;;;4998150;28;20819;-56
2022/06/13 12:43:50;;;;;;;12.30;2.00;;;25.60;34.20;;;;;;5000621;28;20431;-59
2022/06/13 12:46:18;;;;;;;6.53;1.30;;;25.80;35.00;;;;;;4993101;28;20431;-59
2022/06/13 12:49:14;;;;;;;1.20;1.10;;;26.00;33.60;;;;;;4996802;28;20657;-61
2022/06/13 12:51:52;;;;;;;3.03;1.60;;;26.20;33.80;;;;;;4993798;28;20431;-60
2022/06/13 12:54:35;;;;;;;2.20;1.50;;;26.30;31.90;;;;;;4995384;28;21929;-62
2022/06/13 12:57:30;;;;;;;1.77;1.30;;;26.30;30.60;;;;;;4996466;28;20925;-60
2022/06/13 13:00:35;;;;;;;2.83;1.33;;;26.40;32.90;;;;;;4986887;28;20968;-58
2022/06/13 13:03:36;;;;;;;2.90;1.50;;;26.50;33.20;;;;;;5001268;28;20671;-59
2022/06/13 13:06:14;;;;;;;3.13;1.30;;;26.50;32.10;;;;;;4983610;28;20450;-60
2022/06/13 13:09:12;;;;;;;3.73;1.40;;;26.60;33.10;;;;;;4991879;28;20458;-60
2022/06/13 13:12:11;;;;;;;5.50;1.23;;;26.90;34.40;;;;;;4976232;28;20447;-58
2022/06/13 13:15:05;;;;;;;4.00;1.30;;;27.10;30.90;;;;;;4997097;28;20434;-59
2022/06/13 13:17:50;;;;;;;2.20;1.77;;;27.00;28.30;;;;;;5000753;28;20454;-58
2022/06/13 13:20:19;;;;;;;3.83;1.13;;;26.90;28.50;;;;;;4999470;28;20923;-58
2022/06/13 13:23:00;;;;;;;5.90;1.20;;;26.90;28.10;;;;;;4998224;28;20427;-58
2022/06/13 13:25:53;;;;;;;1.50;1.40;;;27.00;29.70;;;;;;4997511;28;20470;-60
2022/06/13 13:28:42;;;;;;;1.83;1.00;;;27.10;30.00;;;;;;5000231;28;20510;-61
2022/06/13 13:31:28;;;;;;;2.40;1.20;;;27.10;27.60;;;;;;4998725;28;21964;-58
2022/06/13 13:34:16;;;;;;;2.10;1.50;;;27.00;28.80;;;;;;4996600;28;20454;-61
2022/06/13 13:36:56;;;;;;;3.33;1.97;;;27.00;31.90;;;;;;4991463;28;20497;-59
2022/06/13 13:39:35;;;;;;;4.80;1.60;;;27.30;33.00;;;;;;4999319;28;20435;-60
2022/06/13 13:42:08;;;;;;;3.20;1.30;;;27.40;33.20;;;;;;4994691;28;20436;-59
2022/06/13 13:45:00;;;;;;;7.23;2.30;;;27.60;32.60;;;;;;4996925;28;20520;-60
2022/06/13 13:47:26;;;;;;;8.07;1.50;;;27.60;30.60;;;;;;4992041;28;20465;-60
2022/06/13 13:50:13;;;;;;;6.23;1.47;;;27.70;33.30;;;;;;4993077;28;20450;-60
2022/06/13 13:52:43;;;;;;;3.33;1.23;;;27.90;32.80;;;;;;4997030;28;20183;-60
2022/06/13 13:55:39;;;;;;;2.10;1.30;;;28.10;32.60;;;;;;4998077;28;20678;-59
2022/06/13 13:58:17;;;;;;;1.83;1.23;;;28.30;31.90;;;;;;5002458;28;20267;-59